sensor_id;sensor_type;location;lat;lon;timestamp;P1;durP1;ratioP1;P2;durP2;ratioP2
53598;SDS011;39485;45.702;11.364;2023-04-24T00:00:22;1.45;;;1.35;;
53598;SDS011;39485;45.702;11.364;2023-04-24T00:02:48;2.20;;;2.03;;
53598;SDS011;39485;45.702;11.364;2023-04-24T00:05:15;1.60;;;1.33;;
53598;SDS011;39485;45.702;11.364;2023-04-24T00:07:42;0.40;;;0.40;;
53598;SDS011;39485;45.702;11.364;2023-04-24T00:10:09;1.20;;;0.82;;
53598;SDS011;39485;45.702;11.364;2023-04-24T00:12:36;3.80;;;1.13;;
53598;SDS011;39485;45.702;11.364;2023-04-24T00:15:02;0.90;;;0.90;;
53598;SDS011;39485;45.702;11.364;2023-04-24T00:17:28;1.05;;;0.80;;
53598;SDS011;39485;45.702;11.364;2023-04-24T00:19:54;3.55;;;2.10;;
53598;SDS011;39485;45.702;11.364;2023-04-24T00:22:29;1.70;;;1.20;;
53598;SDS011;39485;45.702;11.364;2023-04-24T00:25:14;0.43;;;0.43;;
53598;SDS011;39485;45.702;11.364;2023-04-24T00:27:40;0.65;;;0.65;;
53598;SDS011;39485;45.702;11.364;2023-04-24T00:30:05;2.90;;;1.15;;
53598;SDS011;39485;45.702;11.364;2023-04-24T00:32:32;0.77;;;0.77;;
53598;SDS011;39485;45.702;11.364;2023-04-24T00:34:57;0.77;;;0.77;;
53598;SDS011;39485;45.702;11.364;2023-04-24T00:37:23;0.60;;;0.60;;
53598;SDS011;39485;45.702;11.364;2023-04-24T00:39:49;0.93;;;0.93;;
53598;SDS011;39485;45.702;11.364;2023-04-24T00:42:14;0.95;;;0.95;;
53598;SDS011;39485;45.702;11.364;2023-04-24T00:44:40;1.13;;;0.93;;
53598;SDS011;39485;45.702;11.364;2023-04-24T00:47:06;1.20;;;1.20;;
53598;SDS011;39485;45.702;11.364;2023-04-24T00:49:35;9.90;;;1.00;;
53598;SDS011;39485;45.702;11.364;2023-04-24T00:52:01;1.52;;;0.98;;
53598;SDS011;39485;45.702;11.364;2023-04-24T00:54:27;1.80;;;1.42;;
53598;SDS011;39485;45.702;11.364;2023-04-24T00:56:52;3.17;;;2.53;;
53598;SDS011;39485;45.702;11.364;2023-04-24T00:59:18;3.95;;;1.45;;
53598;SDS011;39485;45.702;11.364;2023-04-24T01:01:44;1.17;;;1.17;;
53598;SDS011;39485;45.702;11.364;2023-04-24T01:04:11;1.08;;;1.05;;
53598;SDS011;39485;45.702;11.364;2023-04-24T01:06:40;1.67;;;1.58;;
53598;SDS011;39485;45.702;11.364;2023-04-24T01:09:08;1.13;;;0.93;;
53598;SDS011;39485;45.702;11.364;2023-04-24T01:11:36;3.25;;;1.83;;
53598;SDS011;39485;45.702;11.364;2023-04-24T01:14:02;4.03;;;1.30;;
53598;SDS011;39485;45.702;11.364;2023-04-24T01:16:28;1.27;;;1.27;;
53598;SDS011;39485;45.702;11.364;2023-04-24T01:18:54;4.85;;;2.35;;
53598;SDS011;39485;45.702;11.364;2023-04-24T01:21:20;1.73;;;1.63;;
53598;SDS011;39485;45.702;11.364;2023-04-24T01:23:48;8.65;;;2.03;;
53598;SDS011;39485;45.702;11.364;2023-04-24T01:26:15;2.83;;;1.88;;
53598;SDS011;39485;45.702;11.364;2023-04-24T01:28:42;2.00;;;1.17;;
53598;SDS011;39485;45.702;11.364;2023-04-24T01:31:08;4.97;;;2.83;;
53598;SDS011;39485;45.702;11.364;2023-04-24T01:33:33;0.80;;;0.80;;
53598;SDS011;39485;45.702;11.364;2023-04-24T01:35:59;0.60;;;0.60;;
53598;SDS011;39485;45.702;11.364;2023-04-24T01:38:25;2.22;;;1.92;;
53598;SDS011;39485;45.702;11.364;2023-04-24T01:40:51;1.38;;;1.35;;
53598;SDS011;39485;45.702;11.364;2023-04-24T01:43:18;1.55;;;1.00;;
53598;SDS011;39485;45.702;11.364;2023-04-24T01:45:43;2.65;;;1.60;;
53598;SDS011;39485;45.702;11.364;2023-04-24T01:48:10;1.98;;;1.50;;
53598;SDS011;39485;45.702;11.364;2023-04-24T01:50:44;2.38;;;1.88;;
53598;SDS011;39485;45.702;11.364;2023-04-24T01:53:10;1.08;;;1.08;;
53598;SDS011;39485;45.702;11.364;2023-04-24T01:55:36;0.63;;;0.63;;
53598;SDS011;39485;45.702;11.364;2023-04-24T01:58:02;1.33;;;0.95;;
53598;SDS011;39485;45.702;11.364;2023-04-24T02:00:28;3.20;;;1.70;;
53598;SDS011;39485;45.702;11.364;2023-04-24T02:02:53;1.05;;;1.05;;
53598;SDS011;39485;45.702;11.364;2023-04-24T02:05:19;1.25;;;1.15;;
53598;SDS011;39485;45.702;11.364;2023-04-24T02:07:45;2.63;;;1.48;;
53598;SDS011;39485;45.702;11.364;2023-04-24T02:10:11;1.38;;;1.35;;
53598;SDS011;39485;45.702;11.364;2023-04-24T02:12:37;2.92;;;1.45;;
53598;SDS011;39485;45.702;11.364;2023-04-24T02:15:03;1.17;;;1.08;;
53598;SDS011;39485;45.702;11.364;2023-04-24T02:17:29;1.42;;;1.30;;
53598;SDS011;39485;45.702;11.364;2023-04-24T02:19:55;0.82;;;0.82;;
53598;SDS011;39485;45.702;11.364;2023-04-24T02:22:21;1.98;;;1.70;;
53598;SDS011;39485;45.702;11.364;2023-04-24T02:24:47;1.73;;;1.35;;
53598;SDS011;39485;45.702;11.364;2023-04-24T02:27:12;0.63;;;0.63;;
53598;SDS011;39485;45.702;11.364;2023-04-24T02:29:38;1.38;;;1.25;;
53598;SDS011;39485;45.702;11.364;2023-04-24T02:32:04;2.05;;;1.08;;
53598;SDS011;39485;45.702;11.364;2023-04-24T02:34:29;1.33;;;1.25;;
53598;SDS011;39485;45.702;11.364;2023-04-24T02:36:55;2.72;;;1.52;;
53598;SDS011;39485;45.702;11.364;2023-04-24T02:39:21;1.13;;;1.13;;
53598;SDS011;39485;45.702;11.364;2023-04-24T02:44:22;1.40;;;1.38;;
53598;SDS011;39485;45.702;11.364;2023-04-24T02:46:48;1.08;;;0.85;;
53598;SDS011;39485;45.702;11.364;2023-04-24T02:49:13;2.78;;;1.27;;
53598;SDS011;39485;45.702;11.364;2023-04-24T02:51:40;1.85;;;1.48;;
53598;SDS011;39485;45.702;11.364;2023-04-24T02:54:06;0.85;;;0.60;;
53598;SDS011;39485;45.702;11.364;2023-04-24T02:56:34;1.17;;;0.90;;
53598;SDS011;39485;45.702;11.364;2023-04-24T02:58:59;0.57;;;0.57;;
53598;SDS011;39485;45.702;11.364;2023-04-24T03:01:25;1.15;;;1.05;;
53598;SDS011;39485;45.702;11.364;2023-04-24T03:03:51;0.75;;;0.75;;
53598;SDS011;39485;45.702;11.364;2023-04-24T03:06:16;1.30;;;1.10;;
53598;SDS011;39485;45.702;11.364;2023-04-24T03:08:42;1.23;;;1.15;;
53598;SDS011;39485;45.702;11.364;2023-04-24T03:11:08;1.23;;;1.08;;
53598;SDS011;39485;45.702;11.364;2023-04-24T03:13:33;1.95;;;1.00;;
53598;SDS011;39485;45.702;11.364;2023-04-24T03:15:59;0.40;;;0.40;;
53598;SDS011;39485;45.702;11.364;2023-04-24T03:18:25;4.28;;;1.30;;
53598;SDS011;39485;45.702;11.364;2023-04-24T03:20:51;3.25;;;1.42;;
53598;SDS011;39485;45.702;11.364;2023-04-24T03:23:16;0.75;;;0.65;;
53598;SDS011;39485;45.702;11.364;2023-04-24T03:25:42;0.85;;;0.85;;
53598;SDS011;39485;45.702;11.364;2023-04-24T03:28:08;1.23;;;1.20;;
53598;SDS011;39485;45.702;11.364;2023-04-24T03:30:33;0.80;;;0.80;;
53598;SDS011;39485;45.702;11.364;2023-04-24T03:32:59;0.95;;;0.95;;
53598;SDS011;39485;45.702;11.364;2023-04-24T03:35:25;1.02;;;0.93;;
53598;SDS011;39485;45.702;11.364;2023-04-24T03:37:51;0.73;;;0.73;;
53598;SDS011;39485;45.702;11.364;2023-04-24T03:40:16;1.88;;;1.77;;
53598;SDS011;39485;45.702;11.364;2023-04-24T03:42:42;2.58;;;0.60;;
53598;SDS011;39485;45.702;11.364;2023-04-24T03:45:08;1.33;;;1.08;;
53598;SDS011;39485;45.702;11.364;2023-04-24T03:47:34;0.40;;;0.40;;
53598;SDS011;39485;45.702;11.364;2023-04-24T03:50:00;0.85;;;0.85;;
53598;SDS011;39485;45.702;11.364;2023-04-24T03:52:26;1.15;;;1.02;;
53598;SDS011;39485;45.702;11.364;2023-04-24T03:54:51;0.63;;;0.63;;
53598;SDS011;39485;45.702;11.364;2023-04-24T03:57:17;0.63;;;0.63;;
53598;SDS011;39485;45.702;11.364;2023-04-24T03:59:43;0.60;;;0.60;;
53598;SDS011;39485;45.702;11.364;2023-04-24T04:02:15;1.10;;;0.63;;
53598;SDS011;39485;45.702;11.364;2023-04-24T04:04:40;0.40;;;0.35;;
53598;SDS011;39485;45.702;11.364;2023-04-24T04:07:06;0.82;;;0.82;;
53598;SDS011;39485;45.702;11.364;2023-04-24T04:09:33;0.40;;;0.40;;
53598;SDS011;39485;45.702;11.364;2023-04-24T04:11:59;1.80;;;1.17;;
53598;SDS011;39485;45.702;11.364;2023-04-24T04:14:25;0.75;;;0.75;;
53598;SDS011;39485;45.702;11.364;2023-04-24T04:16:51;0.50;;;0.50;;
53598;SDS011;39485;45.702;11.364;2023-04-24T04:19:17;1.33;;;0.98;;
53598;SDS011;39485;45.702;11.364;2023-04-24T04:21:42;1.17;;;1.08;;
53598;SDS011;39485;45.702;11.364;2023-04-24T04:24:10;0.60;;;0.60;;
53598;SDS011;39485;45.702;11.364;2023-04-24T04:26:37;0.52;;;0.52;;
53598;SDS011;39485;45.702;11.364;2023-04-24T04:29:03;0.50;;;0.50;;
53598;SDS011;39485;45.702;11.364;2023-04-24T04:31:29;0.60;;;0.60;;
53598;SDS011;39485;45.702;11.364;2023-04-24T04:33:55;4.15;;;1.55;;
53598;SDS011;39485;45.702;11.364;2023-04-24T04:36:21;0.57;;;0.57;;
53598;SDS011;39485;45.702;11.364;2023-04-24T04:38:46;0.88;;;0.88;;
53598;SDS011;39485;45.702;11.364;2023-04-24T04:41:13;0.60;;;0.60;;
53598;SDS011;39485;45.702;11.364;2023-04-24T04:43:39;2.85;;;1.48;;
53598;SDS011;39485;45.702;11.364;2023-04-24T04:46:05;1.08;;;1.08;;
53598;SDS011;39485;45.702;11.364;2023-04-24T04:48:33;2.10;;;1.25;;
53598;SDS011;39485;45.702;11.364;2023-04-24T04:50:58;0.82;;;0.82;;
53598;SDS011;39485;45.702;11.364;2023-04-24T04:53:24;2.05;;;1.20;;
53598;SDS011;39485;45.702;11.364;2023-04-24T04:55:50;1.45;;;1.25;;
53598;SDS011;39485;45.702;11.364;2023-04-24T04:58:16;1.08;;;1.08;;
53598;SDS011;39485;45.702;11.364;2023-04-24T05:00:42;1.10;;;1.00;;
53598;SDS011;39485;45.702;11.364;2023-04-24T05:03:08;1.35;;;1.17;;
53598;SDS011;39485;45.702;11.364;2023-04-24T05:05:33;1.10;;;1.10;;
53598;SDS011;39485;45.702;11.364;2023-04-24T05:07:59;0.75;;;0.75;;
53598;SDS011;39485;45.702;11.364;2023-04-24T05:10:25;1.45;;;1.35;;
53598;SDS011;39485;45.702;11.364;2023-04-24T05:12:50;3.72;;;1.88;;
53598;SDS011;39485;45.702;11.364;2023-04-24T05:15:16;0.80;;;0.80;;
53598;SDS011;39485;45.702;11.364;2023-04-24T05:17:42;0.63;;;0.63;;
53598;SDS011;39485;45.702;11.364;2023-04-24T05:20:07;0.50;;;0.50;;
53598;SDS011;39485;45.702;11.364;2023-04-24T05:22:34;0.95;;;0.95;;
53598;SDS011;39485;45.702;11.364;2023-04-24T05:25:01;2.03;;;1.90;;
53598;SDS011;39485;45.702;11.364;2023-04-24T05:27:27;2.08;;;1.95;;
53598;SDS011;39485;45.702;11.364;2023-04-24T05:29:53;0.75;;;0.75;;
53598;SDS011;39485;45.702;11.364;2023-04-24T05:32:18;1.27;;;1.00;;
53598;SDS011;39485;45.702;11.364;2023-04-24T05:34:44;2.65;;;1.33;;
53598;SDS011;39485;45.702;11.364;2023-04-24T05:37:10;1.35;;;1.25;;
53598;SDS011;39485;45.702;11.364;2023-04-24T05:39:36;1.08;;;0.80;;
53598;SDS011;39485;45.702;11.364;2023-04-24T05:42:02;1.67;;;1.15;;
53598;SDS011;39485;45.702;11.364;2023-04-24T05:44:29;1.30;;;1.23;;
53598;SDS011;39485;45.702;11.364;2023-04-24T05:46:55;3.20;;;0.55;;
53598;SDS011;39485;45.702;11.364;2023-04-24T05:49:21;1.08;;;0.98;;
53598;SDS011;39485;45.702;11.364;2023-04-24T05:51:47;0.60;;;0.60;;
53598;SDS011;39485;45.702;11.364;2023-04-24T05:54:13;2.08;;;1.27;;
53598;SDS011;39485;45.702;11.364;2023-04-24T05:56:39;0.60;;;0.60;;
53598;SDS011;39485;45.702;11.364;2023-04-24T05:59:05;1.58;;;1.50;;
53598;SDS011;39485;45.702;11.364;2023-04-24T06:01:31;0.73;;;0.73;;
53598;SDS011;39485;45.702;11.364;2023-04-24T06:03:57;1.20;;;1.17;;
53598;SDS011;39485;45.702;11.364;2023-04-24T06:06:23;0.65;;;0.65;;
53598;SDS011;39485;45.702;11.364;2023-04-24T06:08:49;1.60;;;1.50;;
53598;SDS011;39485;45.702;11.364;2023-04-24T06:11:15;0.30;;;0.30;;
53598;SDS011;39485;45.702;11.364;2023-04-24T06:13:41;1.10;;;1.10;;
53598;SDS011;39485;45.702;11.364;2023-04-24T06:16:06;0.57;;;0.57;;
53598;SDS011;39485;45.702;11.364;2023-04-24T06:18:32;0.75;;;0.75;;
53598;SDS011;39485;45.702;11.364;2023-04-24T06:20:58;1.48;;;1.38;;
53598;SDS011;39485;45.702;11.364;2023-04-24T06:23:24;0.68;;;0.68;;
53598;SDS011;39485;45.702;11.364;2023-04-24T06:25:50;0.45;;;0.45;;
53598;SDS011;39485;45.702;11.364;2023-04-24T06:28:16;1.00;;;0.82;;
53598;SDS011;39485;45.702;11.364;2023-04-24T06:30:42;0.10;;;0.10;;
53598;SDS011;39485;45.702;11.364;2023-04-24T06:33:08;0.10;;;0.10;;
53598;SDS011;39485;45.702;11.364;2023-04-24T06:35:35;0.10;;;0.10;;
53598;SDS011;39485;45.702;11.364;2023-04-24T06:38:01;0.10;;;0.10;;
53598;SDS011;39485;45.702;11.364;2023-04-24T06:40:26;0.10;;;0.10;;
53598;SDS011;39485;45.702;11.364;2023-04-24T06:42:52;0.20;;;0.20;;
53598;SDS011;39485;45.702;11.364;2023-04-24T06:45:18;0.10;;;0.10;;
53598;SDS011;39485;45.702;11.364;2023-04-24T06:47:44;0.20;;;0.20;;
53598;SDS011;39485;45.702;11.364;2023-04-24T06:50:09;0.20;;;0.20;;
53598;SDS011;39485;45.702;11.364;2023-04-24T06:52:36;0.10;;;0.10;;
53598;SDS011;39485;45.702;11.364;2023-04-24T06:55:02;0.10;;;0.10;;
53598;SDS011;39485;45.702;11.364;2023-04-24T06:57:29;0.05;;;0.05;;
53598;SDS011;39485;45.702;11.364;2023-04-24T06:59:55;0.65;;;0.20;;
53598;SDS011;39485;45.702;11.364;2023-04-24T07:02:20;0.17;;;0.17;;
53598;SDS011;39485;45.702;11.364;2023-04-24T07:04:46;0.10;;;0.10;;
53598;SDS011;39485;45.702;11.364;2023-04-24T07:07:15;0.10;;;0.10;;
53598;SDS011;39485;45.702;11.364;2023-04-24T07:09:41;0.10;;;0.10;;
53598;SDS011;39485;45.702;11.364;2023-04-24T07:12:10;0.10;;;0.10;;
53598;SDS011;39485;45.702;11.364;2023-04-24T07:14:37;0.10;;;0.10;;
53598;SDS011;39485;45.702;11.364;2023-04-24T07:17:03;0.10;;;0.10;;
53598;SDS011;39485;45.702;11.364;2023-04-24T07:19:30;0.30;;;0.30;;
53598;SDS011;39485;45.702;11.364;2023-04-24T07:21:56;0.10;;;0.10;;
53598;SDS011;39485;45.702;11.364;2023-04-24T07:24:23;0.10;;;0.10;;
53598;SDS011;39485;45.702;11.364;2023-04-24T07:26:50;0.10;;;0.10;;
53598;SDS011;39485;45.702;11.364;2023-04-24T07:29:16;0.10;;;0.10;;
53598;SDS011;39485;45.702;11.364;2023-04-24T07:31:42;0.30;;;0.30;;
53598;SDS011;39485;45.702;11.364;2023-04-24T07:34:08;0.10;;;0.10;;
53598;SDS011;39485;45.702;11.364;2023-04-24T07:36:33;0.10;;;0.10;;
53598;SDS011;39485;45.702;11.364;2023-04-24T07:38:59;0.15;;;0.15;;
53598;SDS011;39485;45.702;11.364;2023-04-24T07:41:25;0.63;;;0.43;;
53598;SDS011;39485;45.702;11.364;2023-04-24T07:43:52;0.20;;;0.20;;
53598;SDS011;39485;45.702;11.364;2023-04-24T07:46:18;0.10;;;0.10;;
53598;SDS011;39485;45.702;11.364;2023-04-24T07:48:45;0.10;;;0.10;;
53598;SDS011;39485;45.702;11.364;2023-04-24T07:51:13;0.10;;;0.10;;
53598;SDS011;39485;45.702;11.364;2023-04-24T07:53:40;0.10;;;0.10;;
53598;SDS011;39485;45.702;11.364;2023-04-24T07:56:06;0.00;;;0.00;;
53598;SDS011;39485;45.702;11.364;2023-04-24T07:58:32;0.13;;;0.13;;
53598;SDS011;39485;45.702;11.364;2023-04-24T08:00:58;0.10;;;0.10;;
53598;SDS011;39485;45.702;11.364;2023-04-24T08:03:23;0.10;;;0.10;;
53598;SDS011;39485;45.702;11.364;2023-04-24T08:05:49;0.03;;;0.03;;
53598;SDS011;39485;45.702;11.364;2023-04-24T08:08:16;0.00;;;0.00;;
53598;SDS011;39485;45.702;11.364;2023-04-24T08:10:42;0.00;;;0.00;;
53598;SDS011;39485;45.702;11.364;2023-04-24T08:13:07;0.10;;;0.10;;
53598;SDS011;39485;45.702;11.364;2023-04-24T08:15:33;0.20;;;0.20;;
53598;SDS011;39485;45.702;11.364;2023-04-24T08:17:59;0.10;;;0.10;;
53598;SDS011;39485;45.702;11.364;2023-04-24T08:20:25;0.00;;;0.00;;
53598;SDS011;39485;45.702;11.364;2023-04-24T08:22:51;0.00;;;0.00;;
53598;SDS011;39485;45.702;11.364;2023-04-24T08:25:17;0.10;;;0.10;;
53598;SDS011;39485;45.702;11.364;2023-04-24T08:27:44;0.03;;;0.03;;
53598;SDS011;39485;45.702;11.364;2023-04-24T08:30:10;0.10;;;0.10;;
53598;SDS011;39485;45.702;11.364;2023-04-24T08:32:36;0.13;;;0.13;;
53598;SDS011;39485;45.702;11.364;2023-04-24T08:35:02;0.10;;;0.10;;
53598;SDS011;39485;45.702;11.364;2023-04-24T08:37:28;0.05;;;0.05;;
53598;SDS011;39485;45.702;11.364;2023-04-24T08:39:54;0.00;;;0.00;;
53598;SDS011;39485;45.702;11.364;2023-04-24T08:42:20;0.00;;;0.00;;
53598;SDS011;39485;45.702;11.364;2023-04-24T08:44:47;0.00;;;0.00;;
53598;SDS011;39485;45.702;11.364;2023-04-24T08:47:14;0.10;;;0.10;;
53598;SDS011;39485;45.702;11.364;2023-04-24T08:49:40;0.20;;;0.20;;
53598;SDS011;39485;45.702;11.364;2023-04-24T08:52:06;0.10;;;0.10;;
53598;SDS011;39485;45.702;11.364;2023-04-24T08:54:35;0.13;;;0.13;;
53598;SDS011;39485;45.702;11.364;2023-04-24T08:57:02;0.00;;;0.00;;
53598;SDS011;39485;45.702;11.364;2023-04-24T08:59:29;0.10;;;0.10;;
53598;SDS011;39485;45.702;11.364;2023-04-24T09:01:55;0.00;;;0.00;;
53598;SDS011;39485;45.702;11.364;2023-04-24T09:04:22;0.00;;;0.00;;
53598;SDS011;39485;45.702;11.364;2023-04-24T09:06:54;0.00;;;0.00;;
53598;SDS011;39485;45.702;11.364;2023-04-24T09:09:22;0.00;;;0.00;;
53598;SDS011;39485;45.702;11.364;2023-04-24T09:11:49;0.00;;;0.00;;
53598;SDS011;39485;45.702;11.364;2023-04-24T09:14:15;0.00;;;0.00;;
53598;SDS011;39485;45.702;11.364;2023-04-24T09:16:42;0.00;;;0.00;;
53598;SDS011;39485;45.702;11.364;2023-04-24T09:19:08;0.00;;;0.00;;
53598;SDS011;39485;45.702;11.364;2023-04-24T09:21:34;0.10;;;0.10;;
53598;SDS011;39485;45.702;11.364;2023-04-24T09:24:15;0.00;;;0.00;;
53598;SDS011;39485;45.702;11.364;2023-04-24T09:26:48;0.10;;;0.10;;
53598;SDS011;39485;45.702;11.364;2023-04-24T09:29:20;0.00;;;0.00;;
53598;SDS011;39485;45.702;11.364;2023-04-24T09:31:46;0.03;;;0.03;;
53598;SDS011;39485;45.702;11.364;2023-04-24T09:34:12;0.00;;;0.00;;
53598;SDS011;39485;45.702;11.364;2023-04-24T09:36:39;0.00;;;0.00;;
53598;SDS011;39485;45.702;11.364;2023-04-24T09:39:07;0.00;;;0.00;;
53598;SDS011;39485;45.702;11.364;2023-04-24T09:44:14;0.45;;;0.45;;
53598;SDS011;39485;45.702;11.364;2023-04-24T09:46:42;0.00;;;0.00;;
53598;SDS011;39485;45.702;11.364;2023-04-24T09:49:12;0.00;;;0.00;;
53598;SDS011;39485;45.702;11.364;2023-04-24T09:51:40;0.00;;;0.00;;
53598;SDS011;39485;45.702;11.364;2023-04-24T09:54:39;0.20;;;0.20;;
53598;SDS011;39485;45.702;11.364;2023-04-24T09:56:58;0.00;;;0.00;;
53598;SDS011;39485;45.702;11.364;2023-04-24T09:59:27;0.00;;;0.00;;
53598;SDS011;39485;45.702;11.364;2023-04-24T10:01:54;0.00;;;0.00;;
53598;SDS011;39485;45.702;11.364;2023-04-24T10:04:24;0.10;;;0.10;;
53598;SDS011;39485;45.702;11.364;2023-04-24T10:06:52;0.30;;;0.30;;
53598;SDS011;39485;45.702;11.364;2023-04-24T10:09:19;0.40;;;0.22;;
53598;SDS011;39485;45.702;11.364;2023-04-24T10:11:47;0.00;;;0.00;;
53598;SDS011;39485;45.702;11.364;2023-04-24T10:14:18;0.00;;;0.00;;
53598;SDS011;39485;45.702;11.364;2023-04-24T10:16:48;0.00;;;0.00;;
53598;SDS011;39485;45.702;11.364;2023-04-24T10:19:15;0.22;;;0.17;;
53598;SDS011;39485;45.702;11.364;2023-04-24T10:21:44;0.00;;;0.00;;
53598;SDS011;39485;45.702;11.364;2023-04-24T10:24:16;1.15;;;0.30;;
53598;SDS011;39485;45.702;11.364;2023-04-24T10:26:43;0.00;;;0.00;;
53598;SDS011;39485;45.702;11.364;2023-04-24T10:29:10;0.00;;;0.00;;
53598;SDS011;39485;45.702;11.364;2023-04-24T10:31:37;0.00;;;0.00;;
53598;SDS011;39485;45.702;11.364;2023-04-24T10:34:07;0.05;;;0.05;;
53598;SDS011;39485;45.702;11.364;2023-04-24T10:36:34;0.00;;;0.00;;
53598;SDS011;39485;45.702;11.364;2023-04-24T10:39:05;0.00;;;0.00;;
53598;SDS011;39485;45.702;11.364;2023-04-24T10:41:36;0.08;;;0.08;;
53598;SDS011;39485;45.702;11.364;2023-04-24T10:44:07;0.57;;;0.17;;
53598;SDS011;39485;45.702;11.364;2023-04-24T10:46:34;0.00;;;0.00;;
53598;SDS011;39485;45.702;11.364;2023-04-24T10:49:03;0.10;;;0.10;;
53598;SDS011;39485;45.702;11.364;2023-04-24T10:51:44;0.43;;;0.22;;
53598;SDS011;39485;45.702;11.364;2023-04-24T10:56:52;0.00;;;0.00;;
53598;SDS011;39485;45.702;11.364;2023-04-24T10:59:28;0.10;;;0.10;;
53598;SDS011;39485;45.702;11.364;2023-04-24T11:02:00;0.00;;;0.00;;
53598;SDS011;39485;45.702;11.364;2023-04-24T11:04:29;0.00;;;0.00;;
53598;SDS011;39485;45.702;11.364;2023-04-24T11:06:56;0.00;;;0.00;;
53598;SDS011;39485;45.702;11.364;2023-04-24T11:09:22;1.55;;;0.43;;
53598;SDS011;39485;45.702;11.364;2023-04-24T11:12:05;0.00;;;0.00;;
53598;SDS011;39485;45.702;11.364;2023-04-24T11:20:10;0.32;;;0.10;;
53598;SDS011;39485;45.702;11.364;2023-04-24T11:22:37;0.40;;;0.40;;
53598;SDS011;39485;45.702;11.364;2023-04-24T11:25:07;0.10;;;0.10;;
53598;SDS011;39485;45.702;11.364;2023-04-24T11:30:07;0.10;;;0.10;;
53598;SDS011;39485;45.702;11.364;2023-04-24T11:37:33;0.05;;;0.05;;
53598;SDS011;39485;45.702;11.364;2023-04-24T11:39:59;0.00;;;0.00;;
53598;SDS011;39485;45.702;11.364;2023-04-24T11:42:24;0.08;;;0.08;;
53598;SDS011;39485;45.702;11.364;2023-04-24T11:44:54;0.05;;;0.05;;
53598;SDS011;39485;45.702;11.364;2023-04-24T11:47:27;0.10;;;0.10;;
53598;SDS011;39485;45.702;11.364;2023-04-24T11:49:54;0.10;;;0.10;;
53598;SDS011;39485;45.702;11.364;2023-04-24T11:52:19;0.10;;;0.10;;
53598;SDS011;39485;45.702;11.364;2023-04-24T11:54:51;0.00;;;0.00;;
53598;SDS011;39485;45.702;11.364;2023-04-24T11:57:18;0.20;;;0.20;;
53598;SDS011;39485;45.702;11.364;2023-04-24T11:59:45;0.00;;;0.00;;
53598;SDS011;39485;45.702;11.364;2023-04-24T12:02:21;0.00;;;0.00;;
53598;SDS011;39485;45.702;11.364;2023-04-24T12:04:48;0.05;;;0.05;;
53598;SDS011;39485;45.702;11.364;2023-04-24T12:07:14;0.00;;;0.00;;
53598;SDS011;39485;45.702;11.364;2023-04-24T12:09:47;0.25;;;0.25;;
53598;SDS011;39485;45.702;11.364;2023-04-24T12:12:15;0.82;;;0.47;;
53598;SDS011;39485;45.702;11.364;2023-04-24T12:14:45;0.35;;;0.08;;
53598;SDS011;39485;45.702;11.364;2023-04-24T12:17:10;0.00;;;0.00;;
53598;SDS011;39485;45.702;11.364;2023-04-24T12:19:36;0.03;;;0.03;;
53598;SDS011;39485;45.702;11.364;2023-04-24T12:22:03;0.17;;;0.17;;
53598;SDS011;39485;45.702;11.364;2023-04-24T12:24:30;0.10;;;0.10;;
53598;SDS011;39485;45.702;11.364;2023-04-24T12:26:57;0.25;;;0.22;;
53598;SDS011;39485;45.702;11.364;2023-04-24T12:29:23;0.00;;;0.00;;
53598;SDS011;39485;45.702;11.364;2023-04-24T12:31:50;0.10;;;0.10;;
53598;SDS011;39485;45.702;11.364;2023-04-24T12:34:25;0.38;;;0.20;;
53598;SDS011;39485;45.702;11.364;2023-04-24T12:36:51;0.00;;;0.00;;
53598;SDS011;39485;45.702;11.364;2023-04-24T12:39:17;0.28;;;0.20;;
53598;SDS011;39485;45.702;11.364;2023-04-24T12:41:50;0.20;;;0.20;;
53598;SDS011;39485;45.702;11.364;2023-04-24T12:44:28;7.38;;;0.43;;
53598;SDS011;39485;45.702;11.364;2023-04-24T12:46:59;0.50;;;0.30;;
53598;SDS011;39485;45.702;11.364;2023-04-24T12:49:25;0.47;;;0.28;;
53598;SDS011;39485;45.702;11.364;2023-04-24T12:51:51;0.00;;;0.00;;
53598;SDS011;39485;45.702;11.364;2023-04-24T12:54:16;0.03;;;0.03;;
53598;SDS011;39485;45.702;11.364;2023-04-24T12:56:42;0.00;;;0.00;;
53598;SDS011;39485;45.702;11.364;2023-04-24T12:59:08;0.10;;;0.10;;
53598;SDS011;39485;45.702;11.364;2023-04-24T13:01:33;0.00;;;0.00;;
53598;SDS011;39485;45.702;11.364;2023-04-24T13:03:59;0.28;;;0.28;;
53598;SDS011;39485;45.702;11.364;2023-04-24T13:06:25;0.10;;;0.10;;
53598;SDS011;39485;45.702;11.364;2023-04-24T13:08:51;0.10;;;0.10;;
53598;SDS011;39485;45.702;11.364;2023-04-24T13:11:17;0.10;;;0.10;;
53598;SDS011;39485;45.702;11.364;2023-04-24T13:13:43;0.10;;;0.10;;
53598;SDS011;39485;45.702;11.364;2023-04-24T13:16:08;0.10;;;0.10;;
53598;SDS011;39485;45.702;11.364;2023-04-24T13:18:34;0.10;;;0.10;;
53598;SDS011;39485;45.702;11.364;2023-04-24T13:21:00;0.10;;;0.10;;
53598;SDS011;39485;45.702;11.364;2023-04-24T13:23:26;0.13;;;0.13;;
53598;SDS011;39485;45.702;11.364;2023-04-24T13:25:52;0.00;;;0.00;;
53598;SDS011;39485;45.702;11.364;2023-04-24T13:28:20;0.05;;;0.05;;
53598;SDS011;39485;45.702;11.364;2023-04-24T13:30:45;0.17;;;0.17;;
53598;SDS011;39485;45.702;11.364;2023-04-24T13:33:11;0.00;;;0.00;;
53598;SDS011;39485;45.702;11.364;2023-04-24T13:35:37;0.38;;;0.15;;
53598;SDS011;39485;45.702;11.364;2023-04-24T13:38:02;0.10;;;0.10;;
53598;SDS011;39485;45.702;11.364;2023-04-24T13:40:30;0.22;;;0.22;;
53598;SDS011;39485;45.702;11.364;2023-04-24T13:42:56;0.08;;;0.08;;
53598;SDS011;39485;45.702;11.364;2023-04-24T13:45:22;0.20;;;0.20;;
53598;SDS011;39485;45.702;11.364;2023-04-24T13:47:47;0.22;;;0.22;;
53598;SDS011;39485;45.702;11.364;2023-04-24T13:50:13;0.17;;;0.17;;
53598;SDS011;39485;45.702;11.364;2023-04-24T13:52:39;0.10;;;0.10;;
53598;SDS011;39485;45.702;11.364;2023-04-24T13:55:05;0.10;;;0.10;;
53598;SDS011;39485;45.702;11.364;2023-04-24T13:57:31;0.10;;;0.10;;
53598;SDS011;39485;45.702;11.364;2023-04-24T13:59:57;0.20;;;0.20;;
53598;SDS011;39485;45.702;11.364;2023-04-24T14:02:27;0.40;;;0.40;;
53598;SDS011;39485;45.702;11.364;2023-04-24T14:04:53;0.55;;;0.55;;
53598;SDS011;39485;45.702;11.364;2023-04-24T14:07:18;0.10;;;0.10;;
53598;SDS011;39485;45.702;11.364;2023-04-24T14:09:44;0.00;;;0.00;;
53598;SDS011;39485;45.702;11.364;2023-04-24T14:12:10;0.00;;;0.00;;
53598;SDS011;39485;45.702;11.364;2023-04-24T14:14:35;0.50;;;0.50;;
53598;SDS011;39485;45.702;11.364;2023-04-24T14:17:01;0.10;;;0.10;;
53598;SDS011;39485;45.702;11.364;2023-04-24T14:19:26;0.03;;;0.03;;
